Main page
METAR-TAF:

METAR-TAF

Airports :

Maple Lake Municipal Airport

Maple Lake, Minnesota, United States

latitude: 45-14-10N, longitude: 093-59-08W, elevation: 1027 ft

Current weather observation

The report was made 16 minutes ago, at 21:36 UTC
Calm wind
Temperature 14°F
Humidity 48%
Pressure 30.64 in. Hg
Visibility: 10 miles

METAR: KMGG 202136Z AUTO 00000KT 10SM M10/M19 A3064 RMK AO2 T11021188

Time: 15:52 (21:52 UTC)


TAF: missing

Weather observations and forecasts of more than 4000 airports (METAR and TAF reports).

The available stations are represented by yellow and red dots on the map.

Hover mouse over dot to see the name of the station.

Then click to see weather observations and forecasts.

To change the map : click on the green buttons with a black cross to zoom in, on the green button with a dash to zoom out, or on the green arrows for adjacent maps.


METAR-TAF: